Aeroporto :
LOGIN :

Iscrizione | Disclaimer

   EN    FR    IT 

 










Sommario :    VFR   VFR Marginale   IFR   IFR Intensivo   IFR Molto Intensivo
Visibilità : 
Base nubi : 
>= 8 km
>= 3000ft
5 / 8 km
1000 / 3000 ft
1500m / 5 km
500 / 1000 ft
800 / 1500m
200 / 500 ft
< 800m
< 200 ft
Simboli :   Temporali  Nebbia  Neve Forte  Precipitazioni Forti  Vento > 20 kt
SIGMETs :   Varie  Temporali  Ghiacco  Turbolenza  Onda orograficha  Ceneri Vulcaniche






- Altitudine del aeroporto : 27 ft
- Codice IATA : PMI


LEPA - Palma de Mallorca

ULTIMO METAR :
  • 140500Z VRB01KT 9999 FEW025 20/18 Q1016 NOSIG

METARs OBSOLETI :
  • 140430Z 03006KT 9999 FEW025 20/18 Q1016 NOSIG
  • 140400Z 04004KT 9999 FEW025 20/18 Q1016 NOSIG
  • 140330Z 04003KT 9999 FEW025 20/18 Q1016 NOSIG
  • 140300Z 03004KT 9999 FEW025 20/18 Q1016 NOSIG
  • 140230Z 08001KT 9999 FEW025 20/18 Q1016 NOSIG

TAF TAF LEPA
Valido dal 14 a 00 ore il 15 a 00 ore UTC


132300Z 1400/1424 VRB03KT 9999 FEW030 TX32/1412Z TN20/1406Z
TEMPO 1407/1411 07010KT
BECMG 1410/1412 22013KT
BECMG 1417/1419 05010KT
BECMG 1422/1424 VRB03KT



MetMap, La meteo Aeronautica in un colpo d'occhio ! - Copyright ORBIFLY Dicembre 2007 - Disclaimer

ORBIFLY MET'MAP TEAM :

Programmazione e sviluppo : Alexandra Zaïnal
Concezione : Baudouin d'Aumeries
Aiuto per la programmazione : Marc-Olivier Méhu
Supporto tecnico e logistico : Manuel Goepfert
Aiuto per la traduzione : Arnaldo La Scala

Contatto : metmap@orbifly.com




FONTI E CREDITI :

   NOAA